Time;durP1;ratioP1;P1;durP2;ratioP2;P2;SDS_P1;SDS_P2;PMS_P1;PMS_P2;Temp;Humidity;BMP_temperature;BMP_pressure;BME280_temperature;BME280_humidity;BME280_pressure;Samples;Min_cycle;Max_cycle;Signal;HPM_P1;HPM_P2
2023/05/11 00:01:35;;;;;;;18.98;13.55;;;11.80;99.90;;;;;;7327685;32;20139;-57
2023/05/11 00:05:36;;;;;;;19.75;13.70;;;11.80;99.90;;;;;;7326766;32;20138;-57
2023/05/11 00:09:40;;;;;;;22.13;14.73;;;11.80;99.90;;;;;;7326106;32;20292;-57
2023/05/11 00:13:42;;;;;;;23.17;14.18;;;11.80;99.90;;;;;;7324876;32;20104;-57
2023/05/11 00:17:44;;;;;;;20.70;14.70;;;11.80;99.90;;;;;;7328366;32;20135;-59
2023/05/11 00:21:46;;;;;;;19.83;13.95;;;11.80;99.90;;;;;;7326703;32;20564;-57
2023/05/11 00:25:47;;;;;;;19.58;14.73;;;11.90;99.90;;;;;;7326902;32;20194;-58
2023/05/11 00:29:49;;;;;;;17.58;13.48;;;11.90;99.90;;;;;;7326197;32;20123;-57
2023/05/11 00:33:53;;;;;;;23.50;14.43;;;11.90;99.90;;;;;;7324901;32;20158;-57
2023/05/11 00:37:55;;;;;;;24.17;17.33;;;11.90;99.90;;;;;;7326162;32;20217;-56
2023/05/11 00:41:57;;;;;;;27.08;20.25;;;12.00;99.90;;;;;;7325061;32;20116;-57
2023/05/11 00:46:00;;;;;;;31.17;21.98;;;12.00;99.90;;;;;;7324026;32;20172;-56
2023/05/11 00:50:02;;;;;;;30.98;22.00;;;12.10;99.90;;;;;;7321319;32;20356;-56
2023/05/11 00:54:04;;;;;;;24.55;16.65;;;12.10;99.90;;;;;;7323578;32;20396;-57
2023/05/11 00:58:06;;;;;;;24.35;18.98;;;12.10;99.90;;;;;;7323027;32;20099;-57
2023/05/11 01:02:08;;;;;;;32.80;22.58;;;12.10;99.90;;;;;;7326784;32;20282;-57
2023/05/11 01:06:28;;;;;;;34.97;24.33;;;12.10;99.90;;;;;;7324838;32;20198;-57
2023/05/11 01:10:52;;;;;;;32.17;23.75;;;12.10;99.90;;;;;;7323628;32;20140;-58
2023/05/11 01:15:02;;;;;;;33.75;24.58;;;12.20;99.90;;;;;;7324638;32;20710;-57
2023/05/11 01:19:24;;;;;;;30.33;23.20;;;12.20;99.90;;;;;;7329386;32;20514;-58
2023/05/11 01:23:41;;;;;;;29.00;23.33;;;12.20;99.90;;;;;;7316492;32;20226;-57
2023/05/11 01:28:03;;;;;;;34.38;25.37;;;12.20;99.90;;;;;;7333214;32;20127;-57
2023/05/11 01:32:27;;;;;;;31.30;24.02;;;12.20;99.90;;;;;;7329158;32;20134;-57
2023/05/11 01:36:33;;;;;;;33.17;22.65;;;12.30;99.90;;;;;;7328542;32;20135;-56
2023/05/11 01:40:36;;;;;;;30.80;20.62;;;12.30;99.90;;;;;;7332066;32;20228;-56
2023/05/11 01:44:41;;;;;;;29.70;20.15;;;12.30;99.90;;;;;;7326864;32;20127;-57
2023/05/11 01:48:47;;;;;;;27.87;21.33;;;12.30;99.90;;;;;;7328187;32;20157;-56
2023/05/11 01:52:51;;;;;;;27.15;21.12;;;12.30;99.90;;;;;;7333490;32;20107;-56
2023/05/11 01:56:54;;;;;;;29.45;20.92;;;12.20;99.90;;;;;;7336728;32;20137;-57
2023/05/11 02:00:59;;;;;;;31.98;22.62;;;12.20;99.90;;;;;;7335817;32;20170;-57
2023/05/11 02:05:02;;;;;;;29.23;23.12;;;12.20;99.90;;;;;;7333081;32;20609;-57
2023/05/11 02:09:08;;;;;;;28.92;21.73;;;12.20;99.90;;;;;;7336492;32;20512;-57
2023/05/11 02:13:10;;;;;;;28.30;20.37;;;12.10;99.90;;;;;;7322817;32;20135;-56
2023/05/11 02:17:14;;;;;;;25.00;19.02;;;12.10;99.90;;;;;;7336813;32;20282;-57
2023/05/11 02:21:16;;;;;;;25.90;20.10;;;12.00;99.90;;;;;;7331930;32;20617;-57
2023/05/11 02:25:19;;;;;;;28.12;18.02;;;11.90;99.90;;;;;;7332413;32;20111;-57
2023/05/11 02:29:21;;;;;;;23.87;17.23;;;11.90;99.90;;;;;;7328608;32;20133;-57
2023/05/11 02:33:33;;;;;;;26.23;18.90;;;11.90;99.90;;;;;;7331490;32;20139;-57
2023/05/11 02:37:40;;;;;;;26.95;18.12;;;11.80;99.90;;;;;;7333364;32;20107;-57
2023/05/11 02:41:43;;;;;;;;;;;11.80;99.90;;;;;;7331908;32;20179;-57
2023/05/11 02:45:46;;;;;;;23.67;17.27;;;11.70;99.90;;;;;;7329683;32;20144;-57
2023/05/11 02:49:52;;;;;;;29.67;17.48;;;11.70;99.90;;;;;;7333400;32;20188;-57
2023/05/11 02:53:56;;;;;;;25.25;16.40;;;11.70;99.90;;;;;;7328975;32;20580;-58
2023/05/11 02:57:58;;;;;;;25.12;17.92;;;11.70;99.90;;;;;;7338247;32;20160;-57
2023/05/11 03:02:00;;;;;;;24.35;17.87;;;11.60;99.90;;;;;;7331894;32;20361;-57
2023/05/11 03:06:02;;;;;;;24.12;18.62;;;11.60;99.90;;;;;;7331349;32;20260;-57
2023/05/11 03:10:05;;;;;;;30.08;18.65;;;11.60;99.90;;;;;;7338967;32;20116;-58
2023/05/11 03:14:07;;;;;;;27.20;18.35;;;11.50;99.90;;;;;;7329391;32;20401;-57
2023/05/11 03:18:10;;;;;;;27.13;18.35;;;11.50;99.90;;;;;;7326105;32;20871;-57
2023/05/11 03:22:12;;;;;;;33.45;20.27;;;11.50;99.90;;;;;;7333858;32;20138;-57
2023/05/11 03:26:17;;;;;;;31.70;20.00;;;11.50;99.90;;;;;;7327349;32;20512;-57
2023/05/11 03:30:21;;;;;;;32.90;20.58;;;11.40;99.90;;;;;;7330747;32;20162;-56
2023/05/11 03:34:23;;;;;;;32.25;20.83;;;11.50;99.90;;;;;;7329259;32;20557;-57
2023/05/11 03:38:27;;;;;;;37.05;23.00;;;11.50;99.90;;;;;;7328217;32;20277;-57
2023/05/11 03:42:29;;;;;;;35.50;21.73;;;11.50;99.90;;;;;;7328064;32;20511;-57
2023/05/11 03:46:34;;;;;;;37.00;20.85;;;11.50;99.90;;;;;;7334576;32;20311;-57
2023/05/11 03:50:38;;;;;;;35.60;20.55;;;11.50;99.90;;;;;;7325864;32;20108;-58
2023/05/11 03:54:41;;;;;;;35.75;22.45;;;11.60;99.90;;;;;;7324845;32;20120;-57
2023/05/11 03:58:43;;;;;;;36.33;22.90;;;11.60;99.90;;;;;;7331954;32;20204;-57
2023/05/11 04:02:45;;;;;;;40.35;24.10;;;11.60;99.90;;;;;;7326295;32;20121;-58
2023/05/11 04:06:47;;;;;;;40.33;24.98;;;11.60;99.90;;;;;;7325466;32;20157;-57
2023/05/11 04:10:49;;;;;;;44.17;25.10;;;11.70;99.90;;;;;;7330837;32;20178;-57
2023/05/11 04:14:50;;;;;;;44.50;25.95;;;11.70;99.90;;;;;;7326204;32;20198;-57
2023/05/11 04:18:52;;;;;;;43.90;27.25;;;11.80;99.90;;;;;;7330072;32;20137;-57
2023/05/11 04:22:54;;;;;;;44.22;26.83;;;11.80;99.90;;;;;;7327824;32;20111;-58
2023/05/11 04:26:56;;;;;;;43.08;27.50;;;11.90;99.90;;;;;;7319422;32;20131;-58
2023/05/11 04:30:58;;;;;;;40.97;26.90;;;11.90;99.90;;;;;;7335718;32;20214;-55
2023/05/11 04:35:00;;;;;;;45.05;28.73;;;11.90;99.90;;;;;;7331921;32;20450;-56
2023/05/11 04:39:03;;;;;;;44.55;26.92;;;11.90;99.90;;;;;;7334184;32;20119;-56
2023/05/11 04:43:04;;;;;;;47.40;26.95;;;11.90;99.90;;;;;;7324465;32;20627;-56
2023/05/11 04:47:06;;;;;;;49.30;28.67;;;12.00;99.90;;;;;;7325047;32;20138;-58
2023/05/11 04:51:08;;;;;;;49.97;31.52;;;12.00;99.90;;;;;;7307675;32;20107;-57
2023/05/11 04:55:10;;;;;;;47.75;29.80;;;12.10;99.90;;;;;;7327071;32;20798;-57
2023/05/11 04:59:12;;;;;;;48.65;31.95;;;12.10;99.90;;;;;;7321130;32;20549;-57
2023/05/11 05:03:14;;;;;;;53.75;31.02;;;12.20;99.90;;;;;;7333360;32;20195;-58
2023/05/11 05:07:15;;;;;;;47.70;31.15;;;12.20;99.90;;;;;;7326826;32;20111;-57
2023/05/11 05:11:17;;;;;;;47.90;30.27;;;12.20;99.90;;;;;;7324359;32;20934;-58
2023/05/11 05:15:20;;;;;;;49.03;32.15;;;12.30;99.90;;;;;;7327480;32;20107;-58
2023/05/11 05:19:21;;;;;;;55.47;32.72;;;12.30;99.90;;;;;;7325510;32;20134;-57
2023/05/11 05:23:23;;;;;;;50.67;32.83;;;12.30;99.90;;;;;;7320473;32;20135;-58
2023/05/11 05:27:25;;;;;;;47.78;31.77;;;12.40;99.90;;;;;;7329416;32;20119;-58
2023/05/11 05:31:27;;;;;;;56.65;36.10;;;12.40;99.90;;;;;;7332906;32;20175;-59
2023/05/11 05:35:29;;;;;;;51.47;32.33;;;12.30;99.90;;;;;;7337308;32;20103;-57
2023/05/11 05:39:30;;;;;;;51.28;31.35;;;12.40;99.90;;;;;;7329301;32;20135;-57
2023/05/11 05:43:32;;;;;;;53.83;31.85;;;12.40;99.90;;;;;;7329295;32;20114;-58
2023/05/11 05:47:34;;;;;;;50.65;32.00;;;12.40;99.90;;;;;;7330600;32;20198;-58
2023/05/11 05:51:36;;;;;;;48.78;29.42;;;12.50;99.90;;;;;;7329539;32;20189;-58
2023/05/11 05:55:37;;;;;;;46.45;29.23;;;12.50;99.90;;;;;;7328913;32;20293;-57
2023/05/11 05:59:39;;;;;;;41.78;28.95;;;12.60;99.90;;;;;;7325255;32;20213;-58
2023/05/11 06:03:41;;;;;;;42.20;28.02;;;12.70;99.90;;;;;;7325014;32;20108;-58
2023/05/11 06:07:43;;;;;;;41.92;26.90;;;12.80;99.90;;;;;;7333158;32;20157;-58
2023/05/11 06:11:59;;;;;;;44.33;28.67;;;12.80;99.90;;;;;;7329463;32;20211;-58
2023/05/11 06:16:01;;;;;;;40.90;27.23;;;12.80;99.90;;;;;;7328166;32;20760;-58
2023/05/11 06:20:05;;;;;;;39.17;27.73;;;12.80;99.90;;;;;;7331603;32;20111;-56
2023/05/11 06:24:06;;;;;;;40.47;28.98;;;12.80;99.90;;;;;;7331899;32;20119;-58
2023/05/11 06:28:08;;;;;;;41.95;29.20;;;12.80;99.90;;;;;;7330988;32;20111;-58
2023/05/11 06:32:10;;;;;;;42.08;28.77;;;12.90;99.90;;;;;;7325637;32;20116;-57
2023/05/11 06:36:12;;;;;;;37.35;27.85;;;12.90;99.90;;;;;;7326896;32;20316;-57
2023/05/11 06:40:15;;;;;;;40.72;28.23;;;13.00;99.90;;;;;;7327950;32;20213;-58
2023/05/11 06:44:17;;;;;;;44.67;29.77;;;13.10;99.90;;;;;;7334812;32;20358;-58
2023/05/11 06:48:22;;;;;;;44.53;30.83;;;13.00;99.90;;;;;;7322802;32;20140;-57
2023/05/11 06:52:23;;;;;;;45.10;30.25;;;13.00;99.90;;;;;;7324846;32;20107;-57
2023/05/11 06:56:26;;;;;;;48.05;32.90;;;13.00;99.90;;;;;;7322267;32;20161;-57
2023/05/11 07:00:28;;;;;;;44.92;30.77;;;13.00;99.90;;;;;;7324417;32;20166;-58
2023/05/11 07:04:30;;;;;;;47.03;31.98;;;12.90;99.90;;;;;;7324568;32;20313;-58
2023/05/11 07:08:32;;;;;;;45.15;30.88;;;13.00;99.90;;;;;;7337502;32;20233;-58
2023/05/11 07:12:34;;;;;;;44.08;29.98;;;13.00;99.90;;;;;;7327608;32;20116;-57
2023/05/11 07:16:37;;;;;;;42.92;30.73;;;13.00;99.90;;;;;;7325453;32;20185;-59
2023/05/11 07:20:39;;;;;;;43.78;30.55;;;13.00;99.90;;;;;;7329399;32;20313;-57
2023/05/11 07:24:41;;;;;;;42.75;29.42;;;13.00;99.90;;;;;;7325433;32;20480;-57
2023/05/11 07:28:43;;;;;;;40.47;28.00;;;13.10;99.90;;;;;;7325239;32;20968;-58
2023/05/11 07:32:45;;;;;;;41.35;27.80;;;13.20;99.90;;;;;;7329853;32;20130;-57
2023/05/11 07:36:46;;;;;;;40.20;26.87;;;13.40;99.90;;;;;;7328676;32;20108;-58
2023/05/11 07:40:48;;;;;;;39.25;28.80;;;13.50;99.90;;;;;;7335071;32;20110;-57
2023/05/11 07:44:50;;;;;;;33.65;25.60;;;13.70;99.90;;;;;;7333395;32;20236;-58
2023/05/11 07:48:52;;;;;;;36.55;25.55;;;13.90;99.90;;;;;;7328352;32;20470;-57
2023/05/11 07:53:08;;;;;;;34.25;25.40;;;14.00;99.90;;;;;;7334210;32;20805;-59
2023/05/11 07:57:10;;;;;;;32.72;24.83;;;14.10;99.90;;;;;;7330035;32;20203;-59
2023/05/11 08:01:12;;;;;;;32.63;24.50;;;14.40;99.90;;;;;;7333993;32;20670;-58
2023/05/11 08:05:14;;;;;;;30.67;23.30;;;14.50;99.90;;;;;;7322553;32;20234;-58
2023/05/11 08:09:16;;;;;;;30.73;22.25;;;14.40;99.90;;;;;;7328290;32;20574;-58
2023/05/11 08:13:18;;;;;;;46.67;24.80;;;14.40;99.90;;;;;;7332471;32;20169;-58
2023/05/11 08:17:20;;;;;;;26.05;20.77;;;14.30;99.90;;;;;;7322260;32;20112;-58
2023/05/11 08:21:22;;;;;;;28.85;21.83;;;14.20;99.90;;;;;;7328959;32;20777;-58
2023/05/11 08:25:24;;;;;;;30.42;20.83;;;14.20;99.90;;;;;;7329251;32;20852;-57
2023/05/11 08:29:26;;;;;;;28.52;21.35;;;14.30;99.90;;;;;;7330014;32;20131;-58
2023/05/11 08:33:27;;;;;;;27.90;20.98;;;14.50;99.90;;;;;;7327964;32;20147;-58
2023/05/11 08:37:32;;;;;;;27.52;22.02;;;14.60;99.90;;;;;;7333277;32;20169;-58
2023/05/11 08:41:34;;;;;;;30.00;22.00;;;14.70;99.90;;;;;;7330511;32;20147;-58
2023/05/11 08:45:37;;;;;;;34.60;22.30;;;14.70;99.90;;;;;;7322065;32;20533;-58
2023/05/11 08:49:41;;;;;;;30.83;22.20;;;14.80;99.90;;;;;;7323679;32;20236;-57
2023/05/11 08:53:43;;;;;;;29.60;23.05;;;14.70;99.90;;;;;;7331133;32;20226;-58
2023/05/11 08:57:46;;;;;;;31.23;22.42;;;14.80;99.90;;;;;;7323911;32;20701;-58
2023/05/11 09:01:50;;;;;;;33.95;23.02;;;14.70;99.90;;;;;;7322615;32;20182;-58
2023/05/11 09:05:52;;;;;;;31.52;23.10;;;14.70;99.90;;;;;;7328285;32;20544;-58
2023/05/11 09:09:53;;;;;;;32.53;24.02;;;14.60;99.90;;;;;;7334146;32;20112;-58
2023/05/11 09:13:55;;;;;;;33.60;24.73;;;14.70;99.90;;;;;;7321608;32;20229;-58
2023/05/11 09:17:58;;;;;;;31.83;23.65;;;14.70;99.90;;;;;;7331928;32;20135;-58
2023/05/11 09:22:00;;;;;;;34.92;25.02;;;14.70;99.90;;;;;;7331118;32;20261;-58
2023/05/11 09:26:01;;;;;;;32.33;24.37;;;14.80;99.90;;;;;;7326583;32;20229;-57
2023/05/11 09:30:14;;;;;;;32.45;23.15;;;14.80;99.90;;;;;;7331534;32;20521;-57
2023/05/11 09:34:23;;;;;;;33.13;23.05;;;14.80;99.90;;;;;;7320589;32;20137;-57
2023/05/11 09:38:25;;;;;;;29.35;22.45;;;14.80;99.90;;;;;;7335350;32;20107;-58
2023/05/11 09:42:28;;;;;;;28.48;20.80;;;14.70;99.90;;;;;;7326062;32;20127;-58
2023/05/11 09:46:30;;;;;;;31.90;22.98;;;14.70;99.90;;;;;;7330958;32;20158;-57
2023/05/11 09:50:34;;;;;;;33.92;22.75;;;14.60;99.90;;;;;;7335697;32;20307;-57
2023/05/11 09:54:46;;;;;;;29.55;22.48;;;14.80;99.90;;;;;;7331931;32;20735;-57
2023/05/11 09:58:51;;;;;;;34.78;25.65;;;14.80;99.90;;;;;;7328718;32;20217;-58
2023/05/11 10:03:04;;;;;;;29.25;22.35;;;15.00;99.90;;;;;;7332919;32;20874;-57
2023/05/11 10:07:06;;;;;;;32.05;21.87;;;15.00;99.90;;;;;;7327390;32;20122;-58
2023/05/11 10:11:08;;;;;;;25.85;20.02;;;15.20;99.90;;;;;;7327992;32;20161;-58
2023/05/11 10:15:10;;;;;;;27.95;19.37;;;15.40;99.90;;;;;;7332138;32;20127;-58
2023/05/11 10:19:12;;;;;;;27.30;19.92;;;15.70;99.90;;;;;;7328597;32;20226;-57
2023/05/11 10:23:16;;;;;;;22.83;17.37;;;15.70;99.90;;;;;;7332358;32;20171;-59
2023/05/11 10:27:19;;;;;;;23.17;18.48;;;15.80;99.90;;;;;;7325625;32;20497;-58
2023/05/11 10:31:23;;;;;;;21.85;17.85;;;16.30;99.90;;;;;;7329159;32;20115;-58
2023/05/11 10:35:25;;;;;;;20.25;16.73;;;16.50;99.90;;;;;;7341475;32;20197;-58
2023/05/11 10:39:28;;;;;;;21.15;15.88;;;16.60;99.90;;;;;;7338860;32;20210;-58
2023/05/11 10:43:59;;;;;;;26.23;17.30;;;16.80;99.90;;;;;;7334578;32;20349;-57
2023/05/11 10:48:39;;;;;;;19.85;16.37;;;16.80;99.90;;;;;;7328109;32;20184;-57
2023/05/11 10:53:05;;;;;;;22.35;16.25;;;17.00;99.90;;;;;;7304461;32;20230;-57
2023/05/11 10:57:25;;;;;;;20.75;15.50;;;17.10;99.90;;;;;;7324559;32;20585;-58
2023/05/11 11:01:38;;;;;;;20.33;15.50;;;16.90;99.90;;;;;;7331539;32;20167;-59
2023/05/11 11:05:42;;;;;;;21.05;16.42;;;17.00;99.90;;;;;;7331696;32;20192;-58
2023/05/11 11:10:06;;;;;;;17.37;12.90;;;17.10;99.90;;;;;;7330213;32;20123;-58
2023/05/11 11:14:09;;;;;;;20.20;15.90;;;17.00;99.90;;;;;;7319909;32;20130;-58
2023/05/11 11:18:22;;;;;;;23.77;18.27;;;16.70;99.90;;;;;;7333265;32;20115;-59
2023/05/11 11:22:37;;;;;;;20.35;16.17;;;16.40;99.90;;;;;;7328105;32;20604;-58
2023/05/11 11:26:48;;;;;;;21.15;15.65;;;16.60;99.90;;;;;;7328996;32;20307;-58
2023/05/11 11:31:28;;;;;;;24.00;18.25;;;16.80;99.90;;;;;;7326225;32;20754;-58
2023/05/11 11:35:40;;;;;;;22.08;17.62;;;16.80;99.90;;;;;;7328413;32;20111;-58
2023/05/11 11:39:42;;;;;;;19.90;15.60;;;17.10;99.90;;;;;;7327159;32;20203;-58
2023/05/11 11:43:44;;;;;;;21.48;16.55;;;17.10;99.90;;;;;;7325252;32;20735;-58
2023/05/11 11:48:05;;;;;;;21.80;16.40;;;17.20;99.90;;;;;;7329307;32;20132;-59
2023/05/11 11:52:12;;;;;;;19.33;15.75;;;17.40;99.90;;;;;;7326271;32;20506;-59
2023/05/11 11:56:14;;;;;;;;;;;17.80;99.90;;;;;;7331542;32;20183;-57
2023/05/11 12:00:20;;;;;;;21.48;17.20;;;18.00;99.90;;;;;;7325699;32;20030;-59
2023/05/11 12:04:38;;;;;;;22.90;16.85;;;18.50;99.90;;;;;;7323520;32;20162;-58
2023/05/11 12:08:41;;;;;;;22.77;18.00;;;19.00;99.90;;;;;;7328843;32;20150;-57
2023/05/11 12:12:44;;;;;;;19.08;14.60;;;19.20;99.90;;;;;;7331211;32;20139;-58
2023/05/11 12:17:04;;;;;;;18.95;16.05;;;19.50;99.90;;;;;;7328393;32;20143;-59
2023/05/11 12:21:05;;;;;;;19.95;17.08;;;19.50;99.90;;;;;;7302786;32;20135;-59
2023/05/11 12:25:10;;;;;;;19.45;16.85;;;19.70;99.90;;;;;;7335752;32;20134;-58
2023/05/11 12:29:13;;;;;;;20.45;16.30;;;19.70;99.90;;;;;;7335989;32;20728;-58
2023/05/11 12:33:15;;;;;;;20.58;15.43;;;19.60;99.90;;;;;;7329323;32;20123;-58
2023/05/11 12:37:16;;;;;;;21.20;16.70;;;19.60;99.90;;;;;;7330523;32;20127;-58
2023/05/11 12:41:21;;;;;;;17.25;14.00;;;19.60;99.90;;;;;;7333657;32;20139;-58
2023/05/11 12:45:24;;;;;;;15.95;14.30;;;19.50;99.90;;;;;;7324560;32;20382;-58
2023/05/11 12:49:26;;;;;;;18.40;15.55;;;20.00;99.90;;;;;;7325655;32;20468;-59
2023/05/11 12:53:37;;;;;;;16.50;12.98;;;19.90;99.90;;;;;;7320760;32;20225;-58
2023/05/11 12:57:39;;;;;;;18.17;14.52;;;19.80;99.90;;;;;;7328327;32;20196;-58
2023/05/11 13:01:41;;;;;;;19.77;15.70;;;19.80;99.90;;;;;;7320979;32;20127;-58
2023/05/11 13:05:43;;;;;;;25.48;16.25;;;19.20;99.90;;;;;;7323891;32;20962;-58
2023/05/11 13:09:58;;;;;;;23.00;18.10;;;19.10;99.90;;;;;;7322957;32;20669;-57
2023/05/11 13:14:15;;;;;;;23.48;18.17;;;18.90;99.90;;;;;;7326476;32;20576;-57
2023/05/11 13:18:17;;;;;;;27.02;17.83;;;18.70;99.90;;;;;;7308765;32;20099;-58
2023/05/11 13:22:19;;;;;;;23.45;20.75;;;18.60;99.90;;;;;;7326223;32;20184;-58
2023/05/11 13:26:25;;;;;;;26.02;20.80;;;18.40;99.90;;;;;;7321207;32;20443;-58
2023/05/11 13:30:27;;;;;;;25.85;22.42;;;18.10;99.90;;;;;;7324309;32;20175;-59
2023/05/11 13:34:29;;;;;;;22.92;18.80;;;17.70;99.90;;;;;;7324637;32;20140;-57
2023/05/11 13:38:31;;;;;;;24.48;19.75;;;17.50;99.90;;;;;;7321895;32;20157;-58
2023/05/11 13:42:32;;;;;;;23.85;18.85;;;17.20;99.90;;;;;;7319752;32;20246;-57
2023/05/11 13:46:34;;;;;;;26.90;20.50;;;17.00;99.90;;;;;;7324110;32;20256;-57
2023/05/11 13:50:36;;;;;;;28.92;21.92;;;17.00;99.90;;;;;;7330113;32;20184;-57
2023/05/11 13:54:38;;;;;;;28.48;20.48;;;16.90;99.90;;;;;;7323877;32;20154;-58
2023/05/11 13:58:39;;;;;;;27.08;19.87;;;17.00;99.90;;;;;;7326406;32;20257;-57
2023/05/11 14:02:50;;;;;;;22.90;19.30;;;17.00;99.90;;;;;;7320034;32;20182;-57
2023/05/11 14:06:52;;;;;;;26.70;19.23;;;16.90;99.90;;;;;;7323794;32;20134;-58
2023/05/11 14:10:53;;;;;;;23.85;19.25;;;16.90;99.90;;;;;;7319124;32;20138;-57
2023/05/11 14:14:55;;;;;;;26.87;19.65;;;16.80;99.90;;;;;;7328772;32;20544;-57
2023/05/11 14:18:57;;;;;;;22.67;19.65;;;17.00;99.90;;;;;;7324313;32;20100;-57
2023/05/11 14:22:59;;;;;;;23.83;18.90;;;17.00;99.90;;;;;;7316080;32;20136;-57
2023/05/11 14:27:02;;;;;;;24.87;18.70;;;17.00;99.90;;;;;;7317937;32;20132;-59
2023/05/11 14:31:04;;;;;;;24.52;17.40;;;16.80;99.90;;;;;;7327670;32;20119;-59
2023/05/11 14:35:06;;;;;;;27.20;20.25;;;16.90;99.90;;;;;;7330207;32;20134;-63
2023/05/11 14:39:08;;;;;;;25.65;21.45;;;16.90;99.90;;;;;;7334477;32;20632;-59
2023/05/11 14:43:10;;;;;;;27.85;24.58;;;16.90;99.90;;;;;;7335003;32;20112;-59
2023/05/11 14:47:12;;;;;;;28.15;22.98;;;16.80;99.90;;;;;;7332796;32;20229;-59
2023/05/11 14:51:14;;;;;;;32.55;25.80;;;16.90;99.90;;;;;;7334972;32;20123;-58
2023/05/11 14:55:16;;;;;;;30.65;23.65;;;16.90;99.90;;;;;;7332840;32;20146;-57
2023/05/11 14:59:19;;;;;;;32.30;23.98;;;16.60;99.90;;;;;;7333030;32;20162;-57
2023/05/11 15:03:21;;;;;;;32.75;23.85;;;16.50;99.90;;;;;;7333224;32;20170;-57
2023/05/11 15:07:23;;;;;;;28.67;22.55;;;16.40;99.90;;;;;;7330202;32;20305;-57
2023/05/11 15:11:24;;;;;;;32.55;24.12;;;16.30;99.90;;;;;;7334180;32;20106;-57
2023/05/11 15:15:26;;;;;;;28.12;20.90;;;16.10;99.90;;;;;;7339639;32;20199;-58
2023/05/11 15:19:28;;;;;;;29.87;23.10;;;16.10;99.90;;;;;;7336240;32;20107;-57
2023/05/11 15:23:29;;;;;;;28.58;21.25;;;16.10;99.90;;;;;;7329141;32;20554;-57
2023/05/11 15:27:31;;;;;;;25.02;19.20;;;16.10;99.90;;;;;;7329970;32;20134;-57
2023/05/11 15:31:33;;;;;;;23.42;17.62;;;16.10;99.90;;;;;;7328562;32;20284;-57
2023/05/11 15:35:36;;;;;;;20.35;16.45;;;16.10;99.90;;;;;;7331952;32;20131;-57
2023/05/11 15:39:38;;;;;;;21.40;17.23;;;16.00;99.90;;;;;;7336806;32;20225;-57
2023/05/11 15:43:40;;;;;;;21.85;17.33;;;16.00;99.90;;;;;;7332674;32;20133;-57
2023/05/11 15:47:42;;;;;;;22.48;16.37;;;16.00;99.90;;;;;;7327323;32;20174;-57
2023/05/11 15:51:44;;;;;;;18.98;15.43;;;16.00;99.90;;;;;;7329679;32;20155;-57
2023/05/11 15:55:49;;;;;;;22.15;17.80;;;16.00;99.90;;;;;;7333396;32;20157;-57
2023/05/11 15:59:51;;;;;;;14.50;11.32;;;16.00;99.90;;;;;;7329250;32;20104;-57
2023/05/11 16:03:52;;;;;;;15.63;10.68;;;15.70;99.90;;;;;;7323179;32;20274;-57
2023/05/11 16:07:54;;;;;;;11.00;9.75;;;15.50;99.90;;;;;;7325914;32;20200;-58
2023/05/11 16:11:56;;;;;;;11.50;10.05;;;15.20;99.90;;;;;;7334343;32;21644;-58
2023/05/11 16:15:58;;;;;;;11.23;9.30;;;14.70;99.90;;;;;;7322400;32;20446;-57
2023/05/11 16:20:00;;;;;;;12.73;10.02;;;14.50;99.90;;;;;;7325191;32;20580;-57
2023/05/11 16:24:02;;;;;;;13.55;10.13;;;14.30;99.90;;;;;;7326938;32;20559;-57
2023/05/11 16:28:03;;;;;;;14.25;11.15;;;14.20;99.90;;;;;;7327221;32;20183;-57
2023/05/11 16:32:05;;;;;;;13.70;10.25;;;14.10;99.90;;;;;;7324627;32;20112;-56
2023/05/11 16:36:08;;;;;;;12.23;9.07;;;14.00;99.90;;;;;;7332340;32;20246;-57
2023/05/11 16:40:10;;;;;;;11.70;9.65;;;14.00;99.90;;;;;;7326668;32;20143;-57
2023/05/11 16:44:11;;;;;;;18.05;11.93;;;14.10;99.90;;;;;;7325298;32;20650;-57
2023/05/11 16:48:13;;;;;;;15.68;9.35;;;14.10;99.90;;;;;;7318323;32;20274;-57
2023/05/11 16:52:16;;;;;;;12.40;10.45;;;14.10;99.90;;;;;;7332784;32;20103;-57
2023/05/11 16:56:18;;;;;;;12.52;9.70;;;14.10;99.90;;;;;;7325010;32;20195;-58
2023/05/11 17:00:19;;;;;;;13.88;10.77;;;14.20;99.90;;;;;;7322345;32;20175;-57
2023/05/11 17:04:21;;;;;;;12.35;10.05;;;14.20;99.90;;;;;;7322648;32;20171;-57
2023/05/11 17:08:23;;;;;;;15.38;9.52;;;14.20;99.90;;;;;;7326086;32;20129;-57
2023/05/11 17:12:27;;;;;;;14.35;10.38;;;14.20;99.90;;;;;;7323447;32;20103;-58
2023/05/11 17:16:29;;;;;;;13.85;9.13;;;14.20;99.90;;;;;;7327777;32;20710;-58
2023/05/11 17:20:31;;;;;;;14.70;8.98;;;14.20;99.90;;;;;;7323679;32;20110;-57
2023/05/11 17:24:33;;;;;;;13.48;11.10;;;14.20;99.90;;;;;;7331038;32;20279;-57
2023/05/11 17:28:38;;;;;;;15.57;10.50;;;14.40;99.90;;;;;;7321166;32;20209;-57
2023/05/11 17:32:40;;;;;;;14.13;10.35;;;14.40;99.90;;;;;;7306782;32;20332;-57
2023/05/11 17:36:42;;;;;;;14.77;10.43;;;14.40;99.90;;;;;;7319083;32;20261;-57
2023/05/11 17:40:44;;;;;;;14.27;10.30;;;14.30;99.90;;;;;;7327696;32;20173;-58
2023/05/11 17:44:46;;;;;;;16.00;10.60;;;14.10;99.90;;;;;;7325083;32;20141;-57
2023/05/11 17:48:48;;;;;;;14.85;10.35;;;14.10;99.90;;;;;;7324787;32;20249;-57
2023/05/11 17:52:49;;;;;;;13.88;10.15;;;14.10;99.90;;;;;;7321020;32;20107;-57
2023/05/11 17:56:52;;;;;;;14.52;10.10;;;14.00;99.90;;;;;;7328855;32;20491;-58
2023/05/11 18:00:53;;;;;;;14.38;10.65;;;13.90;99.90;;;;;;7327543;32;20850;-57
2023/05/11 18:04:55;;;;;;;14.27;11.00;;;13.90;99.90;;;;;;7326636;32;20199;-57
2023/05/11 18:08:58;;;;;;;15.00;11.52;;;13.90;99.90;;;;;;7335752;32;20116;-57
2023/05/11 18:12:59;;;;;;;12.05;9.98;;;13.90;99.90;;;;;;7326921;32;20141;-58
2023/05/11 18:17:03;;;;;;;19.05;12.45;;;13.90;99.90;;;;;;7333074;32;20114;-58
2023/05/11 18:21:06;;;;;;;18.20;11.70;;;13.80;99.90;;;;;;7334421;32;20296;-57
2023/05/11 18:25:08;;;;;;;17.52;13.35;;;13.70;99.90;;;;;;7328279;32;20521;-58
2023/05/11 18:29:10;;;;;;;17.92;12.85;;;13.70;99.90;;;;;;7313263;32;20171;-57
2023/05/11 18:33:11;;;;;;;15.38;12.85;;;13.70;99.90;;;;;;7324239;32;20111;-57
2023/05/11 18:37:13;;;;;;;17.23;13.20;;;13.60;99.90;;;;;;7313657;32;20228;-57
2023/05/11 18:41:15;;;;;;;16.58;12.45;;;13.60;99.90;;;;;;7331913;32;20234;-57
2023/05/11 18:45:17;;;;;;;14.85;12.02;;;13.60;99.90;;;;;;7331403;32;20304;-59
2023/05/11 18:49:19;;;;;;;17.12;13.00;;;13.60;99.90;;;;;;7318996;32;20658;-58
2023/05/11 18:53:21;;;;;;;17.27;12.30;;;13.70;99.90;;;;;;7326038;32;20191;-58
2023/05/11 18:57:23;;;;;;;15.85;12.37;;;13.60;99.90;;;;;;7326247;32;20246;-58
2023/05/11 19:01:24;;;;;;;18.10;12.40;;;13.60;99.90;;;;;;7331923;32;20253;-57
2023/05/11 19:05:47;;;;;;;17.70;12.88;;;13.60;99.90;;;;;;7333746;32;20107;-59
2023/05/11 19:09:49;;;;;;;18.55;13.13;;;13.60;99.90;;;;;;7329662;32;20190;-59
2023/05/11 19:13:54;;;;;;;19.27;13.15;;;13.50;99.90;;;;;;7331921;32;20208;-60
2023/05/11 19:17:56;;;;;;;20.35;13.00;;;13.60;99.90;;;;;;7326794;32;20226;-60
2023/05/11 19:21:58;;;;;;;17.50;13.57;;;13.50;99.90;;;;;;7325493;32;20556;-57
2023/05/11 19:26:00;;;;;;;16.77;13.43;;;13.50;99.90;;;;;;7324590;32;20199;-58
2023/05/11 19:30:03;;;;;;;18.70;12.70;;;13.50;99.90;;;;;;7331827;32;20576;-58
2023/05/11 19:34:05;;;;;;;16.35;12.23;;;13.50;99.90;;;;;;7327053;32;20164;-59
2023/05/11 19:38:07;;;;;;;14.18;11.00;;;13.50;99.90;;;;;;7333188;32;20592;-58
2023/05/11 19:42:09;;;;;;;15.82;12.68;;;13.40;99.90;;;;;;7330994;32;20154;-58
2023/05/11 19:46:11;;;;;;;18.17;12.73;;;13.30;99.90;;;;;;7333063;32;20149;-58
2023/05/11 19:50:13;;;;;;;20.17;14.60;;;13.30;99.90;;;;;;7325427;32;20120;-58
2023/05/11 19:54:15;;;;;;;16.60;12.55;;;13.30;99.90;;;;;;7327749;32;20306;-59
2023/05/11 19:58:17;;;;;;;20.90;14.23;;;13.20;99.90;;;;;;7332608;32;20103;-63
2023/05/11 20:02:19;;;;;;;17.48;14.05;;;13.20;99.90;;;;;;7326744;32;20473;-57
2023/05/11 20:06:20;;;;;;;19.77;13.48;;;13.20;99.90;;;;;;7322142;32;20180;-57
2023/05/11 20:10:22;;;;;;;17.80;13.32;;;13.20;99.90;;;;;;7330295;32;20715;-58
2023/05/11 20:14:24;;;;;;;20.37;14.00;;;13.10;99.90;;;;;;7331134;32;20636;-57
2023/05/11 20:18:26;;;;;;;16.52;14.30;;;13.10;99.90;;;;;;7326287;32;20470;-59
2023/05/11 20:22:28;;;;;;;19.05;13.30;;;13.10;99.90;;;;;;7316630;32;20352;-57
2023/05/11 20:26:30;;;;;;;16.17;13.40;;;13.10;99.90;;;;;;7315344;32;20261;-57
2023/05/11 20:30:31;;;;;;;18.85;14.18;;;13.10;99.90;;;;;;7310819;32;20152;-57
2023/05/11 20:34:33;;;;;;;20.42;14.32;;;13.10;99.90;;;;;;7310813;32;20147;-58
2023/05/11 20:38:35;;;;;;;21.73;15.27;;;13.10;99.90;;;;;;7320642;32;20168;-58